Time;durP1;ratioP1;P1;durP2;ratioP2;P2;SDS_P1;SDS_P2;PMS_P1;PMS_P2;Temp;Humidity;BMP_temperature;BMP_pressure;BME280_temperature;BME280_humidity;BME280_pressure;Samples;Min_cycle;Max_cycle;Signal;HPM_P1;HPM_P2
2021/06/03 00:00:35;;;;;;;16.67;13.73;;;20.20;61.20;;;;;;5120364;27;20489;-83
2021/06/03 00:03:03;;;;;;;15.70;13.88;;;20.20;61.30;;;;;;5137145;27;20107;-83
2021/06/03 00:05:31;;;;;;;16.50;14.77;;;20.20;61.30;;;;;;5103611;27;20051;-84
2021/06/03 00:08:00;;;;;;;16.65;14.75;;;20.20;61.40;;;;;;5104328;27;20055;-85
2021/06/03 00:10:30;;;;;;;15.70;14.02;;;20.20;61.40;;;;;;5083405;28;20504;-83
2021/06/03 00:12:56;;;;;;;16.10;13.75;;;20.10;61.40;;;;;;5085553;28;20043;-84
2021/06/03 00:15:25;;;;;;;16.48;14.32;;;20.20;61.50;;;;;;5101556;28;20082;-84
2021/06/03 00:17:54;;;;;;;15.70;13.80;;;20.10;61.50;;;;;;5067940;28;20051;-83
2021/06/03 00:20:22;;;;;;;16.95;14.65;;;20.10;61.50;;;;;;5084156;28;20047;-83
2021/06/03 00:22:48;;;;;;;16.02;14.40;;;20.10;61.60;;;;;;5067902;28;20445;-83
2021/06/03 00:25:14;;;;;;;16.50;14.40;;;20.00;62.30;;;;;;5106831;27;20436;-82
2021/06/03 00:27:40;;;;;;;15.68;13.82;;;20.00;61.50;;;;;;5120045;27;20122;-84
2021/06/03 00:30:08;;;;;;;16.30;14.63;;;20.00;61.60;;;;;;5121540;27;20325;-85
2021/06/03 00:32:34;;;;;;;15.63;14.05;;;20.00;61.60;;;;;;5088317;27;20062;-84
2021/06/03 00:35:01;;;;;;;17.02;13.88;;;20.00;61.70;;;;;;5087854;27;20403;-84
2021/06/03 00:37:27;;;;;;;16.10;14.43;;;19.90;61.60;;;;;;5103881;27;20065;-83
2021/06/03 00:39:53;;;;;;;15.25;13.63;;;19.90;61.70;;;;;;5121670;27;20094;-83
2021/06/03 00:42:20;;;;;;;15.48;13.95;;;19.90;61.60;;;;;;5119316;27;20074;-82
2021/06/03 00:44:48;;;;;;;14.68;13.20;;;19.90;61.60;;;;;;5111253;27;20039;-83
2021/06/03 00:47:14;;;;;;;15.27;13.73;;;19.90;61.70;;;;;;5102415;27;20039;-84
2021/06/03 00:49:40;;;;;;;15.43;13.82;;;19.80;61.70;;;;;;5099859;28;20077;-84
2021/06/03 00:52:06;;;;;;;15.73;13.38;;;19.80;61.70;;;;;;5082255;28;20040;-83
2021/06/03 00:54:32;;;;;;;14.98;13.38;;;19.80;61.80;;;;;;5081688;28;20047;-84
2021/06/03 00:56:58;;;;;;;15.88;14.27;;;19.80;61.80;;;;;;5078908;28;20051;-83
2021/06/03 00:59:23;;;;;;;15.35;13.55;;;19.80;61.90;;;;;;5094711;28;20126;-84
2021/06/03 01:01:49;;;;;;;16.65;14.90;;;19.70;62.00;;;;;;5095575;28;20044;-84
2021/06/03 01:04:19;;;;;;;17.90;14.02;;;19.70;62.10;;;;;;5113985;28;20517;-84
2021/06/03 01:06:46;;;;;;;16.42;14.63;;;19.70;62.00;;;;;;5098986;28;20044;-84
2021/06/03 01:09:31;;;;;;;15.60;14.07;;;19.70;62.00;;;;;;5099068;28;20031;-84
2021/06/03 01:12:06;;;;;;;15.40;13.90;;;19.70;61.90;;;;;;5097970;28;20046;-82
2021/06/03 01:14:38;;;;;;;16.52;13.65;;;19.60;62.10;;;;;;5081009;28;20144;-83
2021/06/03 01:17:04;;;;;;;20.30;15.25;;;19.60;62.10;;;;;;5080600;28;20040;-84
2021/06/03 01:19:38;;;;;;;16.17;14.68;;;19.60;62.10;;;;;;5095474;28;20039;-83
2021/06/03 01:22:05;;;;;;;17.38;15.48;;;19.60;62.30;;;;;;5099771;28;20044;-82
2021/06/03 01:24:45;;;;;;;18.63;15.70;;;19.60;62.20;;;;;;5099158;28;20173;-84
2021/06/03 01:27:37;;;;;;;17.50;15.57;;;19.50;62.30;;;;;;5083244;28;20043;-84
2021/06/03 01:30:15;;;;;;;17.40;15.68;;;19.50;62.20;;;;;;5096507;28;20052;-83
2021/06/03 01:32:47;;;;;;;18.15;16.30;;;19.50;62.30;;;;;;5098629;28;20046;-84
2021/06/03 01:35:16;;;;;;;17.80;16.13;;;19.40;62.40;;;;;;5064828;28;20436;-83
2021/06/03 01:37:43;;;;;;;17.30;15.68;;;19.40;62.50;;;;;;5079831;28;20466;-83
2021/06/03 01:40:09;;;;;;;18.60;16.83;;;19.40;62.60;;;;;;5078075;28;20112;-84
2021/06/03 01:42:35;;;;;;;18.63;16.08;;;19.40;62.60;;;;;;5092284;28;20097;-84
2021/06/03 01:45:02;;;;;;;18.75;16.45;;;19.40;62.60;;;;;;5077118;28;20044;-84
2021/06/03 01:47:28;;;;;;;20.10;17.08;;;19.30;62.70;;;;;;5092634;28;20051;-84
2021/06/03 01:49:54;;;;;;;18.23;16.00;;;19.30;62.70;;;;;;5082025;28;20128;-84
2021/06/03 01:52:19;;;;;;;18.38;16.58;;;19.30;62.70;;;;;;5080964;28;20158;-83
2021/06/03 01:54:45;;;;;;;18.20;16.35;;;19.30;62.70;;;;;;5114835;28;20044;-83
2021/06/03 01:57:11;;;;;;;19.15;17.25;;;19.30;62.80;;;;;;5098668;28;20067;-84
2021/06/03 01:59:37;;;;;;;18.13;16.38;;;19.30;62.80;;;;;;5075743;28;20063;-84
2021/06/03 02:02:04;;;;;;;18.25;16.40;;;19.20;62.80;;;;;;5063936;28;20059;-83
2021/06/03 02:04:30;;;;;;;17.20;15.40;;;19.20;62.70;;;;;;5079712;28;20123;-82
2021/06/03 02:06:59;;;;;;;18.25;16.52;;;19.20;62.60;;;;;;5081869;28;20144;-83
2021/06/03 02:09:25;;;;;;;18.00;16.27;;;19.20;62.60;;;;;;5097230;28;20040;-83
2021/06/03 02:11:51;;;;;;;17.98;16.30;;;19.20;62.60;;;;;;5098276;28;20400;-83
2021/06/03 02:14:23;;;;;;;17.70;16.02;;;19.10;62.50;;;;;;5094966;28;20056;-84
2021/06/03 02:16:59;;;;;;;18.67;16.67;;;19.10;62.40;;;;;;5097431;28;20461;-83
2021/06/03 02:19:48;;;;;;;18.10;16.42;;;19.10;62.30;;;;;;5080052;28;20040;-84
2021/06/03 02:22:14;;;;;;;18.60;16.85;;;19.10;62.30;;;;;;5082354;28;20032;-85
2021/06/03 02:24:40;;;;;;;18.52;16.77;;;19.10;62.30;;;;;;5116367;28;20066;-84
2021/06/03 02:27:09;;;;;;;19.80;17.85;;;19.10;62.40;;;;;;5085195;28;20055;-82
2021/06/03 02:29:40;;;;;;;18.33;16.52;;;19.00;62.40;;;;;;5101111;28;20097;-84
2021/06/03 02:32:06;;;;;;;19.83;17.73;;;19.00;62.40;;;;;;5084949;28;20158;-82
2021/06/03 02:34:33;;;;;;;17.35;15.75;;;19.00;62.40;;;;;;5099655;28;20058;-83
2021/06/03 02:37:07;;;;;;;17.90;16.10;;;19.00;62.40;;;;;;5086627;28;20148;-84
2021/06/03 02:39:33;;;;;;;17.75;16.08;;;19.00;62.40;;;;;;5087560;27;20127;-83
2021/06/03 02:41:59;;;;;;;18.27;16.58;;;18.90;62.30;;;;;;5104696;27;20476;-83
2021/06/03 02:44:28;;;;;;;18.75;16.85;;;18.90;62.30;;;;;;5103216;27;20043;-84
2021/06/03 02:46:54;;;;;;;18.00;16.25;;;18.90;62.20;;;;;;5121835;27;20039;-83
2021/06/03 02:49:22;;;;;;;18.65;16.85;;;18.80;62.20;;;;;;5105145;27;20054;-83
2021/06/03 02:51:48;;;;;;;18.73;16.95;;;18.80;62.20;;;;;;5132567;27;20603;-85
2021/06/03 02:54:14;;;;;;;18.30;16.60;;;18.80;62.20;;;;;;5082874;27;20054;-83
2021/06/03 02:56:40;;;;;;;19.33;16.13;;;18.80;62.20;;;;;;5115694;27;20092;-82
2021/06/03 02:59:05;;;;;;;18.58;16.60;;;18.80;62.20;;;;;;5116215;27;20096;-81
2021/06/03 03:01:31;;;;;;;18.50;16.75;;;18.70;62.20;;;;;;5099978;28;20088;-83
2021/06/03 03:03:59;;;;;;;18.15;16.40;;;18.70;62.20;;;;;;5118176;27;20057;-80
2021/06/03 03:06:25;;;;;;;18.40;16.55;;;18.70;62.20;;;;;;5099501;27;20124;-82
2021/06/03 03:08:51;;;;;;;16.60;15.15;;;18.70;62.30;;;;;;5098545;27;20147;-81
2021/06/03 03:11:17;;;;;;;17.65;15.88;;;18.70;62.30;;;;;;5082220;27;20065;-83
2021/06/03 03:13:42;;;;;;;17.52;15.95;;;18.70;62.40;;;;;;5098438;27;20403;-84
2021/06/03 03:16:10;;;;;;;17.27;15.57;;;18.70;62.50;;;;;;5115795;27;20047;-83
2021/06/03 03:18:39;;;;;;;17.30;15.68;;;18.60;62.50;;;;;;5098741;27;20462;-84
2021/06/03 03:21:05;;;;;;;17.27;15.68;;;18.60;62.60;;;;;;5099118;27;20069;-84
2021/06/03 03:23:31;;;;;;;17.83;16.10;;;18.60;62.60;;;;;;5081888;27;20047;-84
2021/06/03 03:25:57;;;;;;;17.35;15.65;;;18.60;62.70;;;;;;5098647;27;20111;-83
2021/06/03 03:28:23;;;;;;;18.55;16.50;;;18.60;62.70;;;;;;5081911;27;20063;-82
2021/06/03 03:30:49;;;;;;;20.55;16.08;;;18.60;62.80;;;;;;5081371;27;20057;-83
2021/06/03 03:33:15;;;;;;;18.83;14.65;;;18.60;62.80;;;;;;5098770;27;20144;-83
2021/06/03 03:35:46;;;;;;;16.83;15.23;;;18.60;62.80;;;;;;5080921;27;20062;-83
2021/06/03 03:38:13;;;;;;;17.42;15.65;;;18.60;62.80;;;;;;5115634;27;20042;-84
2021/06/03 03:40:42;;;;;;;17.25;15.50;;;18.60;62.80;;;;;;5082572;27;20073;-83
2021/06/03 03:43:11;;;;;;;17.83;16.02;;;18.60;62.90;;;;;;5081855;27;20076;-82
2021/06/03 03:45:38;;;;;;;16.30;14.82;;;18.60;62.80;;;;;;5115772;27;20050;-85
2021/06/03 03:48:07;;;;;;;15.27;13.80;;;18.60;62.90;;;;;;5082046;27;20093;-82
2021/06/03 03:50:35;;;;;;;16.45;14.68;;;18.60;63.00;;;;;;5098658;27;20072;-83
2021/06/03 03:53:01;;;;;;;15.70;14.20;;;18.60;62.90;;;;;;5098229;27;20054;-81
2021/06/03 03:55:27;;;;;;;16.10;14.48;;;18.60;62.90;;;;;;5098333;27;20126;-81
2021/06/03 03:57:57;;;;;;;17.75;14.65;;;18.60;62.90;;;;;;5094008;27;20336;-83
2021/06/03 04:00:25;;;;;;;15.10;13.55;;;18.60;63.00;;;;;;5107122;27;20375;-82
2021/06/03 04:02:50;;;;;;;15.77;14.20;;;18.60;63.10;;;;;;5127548;27;20109;-82
2021/06/03 04:05:16;;;;;;;15.85;13.57;;;18.60;63.20;;;;;;5109963;27;20142;-81
2021/06/03 04:07:42;;;;;;;15.45;14.00;;;18.60;63.20;;;;;;5113937;27;20062;-83
2021/06/03 04:10:11;;;;;;;14.23;12.88;;;18.60;63.30;;;;;;5113729;27;20053;-82
2021/06/03 04:12:40;;;;;;;16.60;14.82;;;18.60;63.30;;;;;;5136410;27;20038;-84
2021/06/03 04:15:06;;;;;;;16.40;13.85;;;18.60;63.30;;;;;;5114545;27;20520;-82
2021/06/03 04:17:32;;;;;;;15.32;13.00;;;18.60;63.40;;;;;;5102034;27;20137;-84
2021/06/03 04:19:58;;;;;;;14.32;12.82;;;18.60;63.40;;;;;;5118602;27;20046;-83
2021/06/03 04:22:27;;;;;;;15.88;14.27;;;18.60;63.50;;;;;;5101641;27;20562;-84
2021/06/03 04:24:53;;;;;;;14.63;13.25;;;18.60;63.50;;;;;;5098277;27;20081;-83
2021/06/03 04:27:19;;;;;;;14.85;12.82;;;18.60;63.50;;;;;;5106212;27;20426;-82
2021/06/03 04:29:45;;;;;;;15.88;14.27;;;18.60;63.60;;;;;;5096228;27;20062;-81
2021/06/03 04:32:11;;;;;;;15.90;14.23;;;18.60;63.60;;;;;;5120544;27;20100;-81
2021/06/03 04:34:37;;;;;;;16.08;14.60;;;18.60;63.70;;;;;;5105703;27;20047;-82
2021/06/03 04:37:03;;;;;;;15.50;14.00;;;18.70;63.80;;;;;;5114662;27;20042;-83
2021/06/03 04:39:31;;;;;;;15.98;13.25;;;18.70;63.80;;;;;;5098029;27;20043;-82
2021/06/03 04:41:57;;;;;;;14.20;12.90;;;18.70;63.90;;;;;;5099203;27;20047;-81
2021/06/03 04:44:26;;;;;;;14.98;13.45;;;18.70;63.90;;;;;;5098406;27;20047;-83
2021/06/03 04:46:54;;;;;;;16.17;14.55;;;18.70;64.20;;;;;;5100416;27;20157;-83
2021/06/03 04:49:20;;;;;;;14.00;12.70;;;18.70;64.10;;;;;;5113793;27;20071;-82
2021/06/03 04:51:47;;;;;;;14.95;13.32;;;18.70;64.20;;;;;;5080282;27;20052;-83
2021/06/03 04:54:13;;;;;;;15.68;14.00;;;18.70;64.10;;;;;;5080133;27;20125;-82
2021/06/03 04:56:41;;;;;;;14.88;13.32;;;18.80;64.30;;;;;;5080060;27;20039;-82
2021/06/03 04:59:07;;;;;;;16.55;13.88;;;18.80;64.40;;;;;;5113857;27;20039;-82
2021/06/03 05:01:33;;;;;;;16.08;14.48;;;18.80;64.40;;;;;;5096703;27;20116;-83
2021/06/03 05:03:59;;;;;;;15.52;13.93;;;18.80;65.20;;;;;;5079276;27;20126;-82
2021/06/03 05:06:25;;;;;;;18.25;14.60;;;18.80;64.50;;;;;;5079822;27;20131;-82
2021/06/03 05:08:51;;;;;;;15.82;14.25;;;18.90;64.50;;;;;;5084382;27;20043;-83
2021/06/03 05:11:17;;;;;;;16.05;14.35;;;18.90;64.50;;;;;;5093321;27;20043;-84
2021/06/03 05:13:43;;;;;;;16.30;14.77;;;18.90;64.50;;;;;;5101500;27;20043;-84
2021/06/03 05:16:08;;;;;;;16.30;14.63;;;18.90;64.60;;;;;;5116643;27;20046;-84
2021/06/03 05:18:34;;;;;;;14.90;13.40;;;18.90;64.60;;;;;;5100217;27;20142;-83
2021/06/03 05:21:04;;;;;;;14.82;13.43;;;19.00;64.50;;;;;;5099488;27;20038;-83
2021/06/03 05:23:30;;;;;;;15.07;13.57;;;19.00;64.40;;;;;;5107740;27;20046;-84
2021/06/03 05:25:56;;;;;;;15.65;14.05;;;19.00;64.40;;;;;;5096010;27;20088;-84
2021/06/03 05:28:22;;;;;;;17.48;14.00;;;19.10;64.60;;;;;;5096550;27;20078;-83
2021/06/03 05:30:48;;;;;;;15.00;13.57;;;19.10;64.40;;;;;;5096286;28;20055;-86
2021/06/03 05:33:16;;;;;;;14.32;12.90;;;19.10;64.40;;;;;;5094163;27;20486;-82
2021/06/03 05:35:42;;;;;;;14.80;13.43;;;19.20;64.40;;;;;;5093887;27;20103;-82
2021/06/03 05:38:08;;;;;;;13.57;12.18;;;19.20;64.50;;;;;;5099760;27;20046;-83
2021/06/03 05:40:36;;;;;;;14.07;12.50;;;19.20;64.30;;;;;;5081029;28;20065;-82
2021/06/03 05:43:02;;;;;;;13.45;12.13;;;19.30;64.30;;;;;;5114283;28;20039;-82
2021/06/03 05:45:29;;;;;;;13.45;12.05;;;19.30;64.30;;;;;;5094209;27;20042;-83
2021/06/03 05:48:00;;;;;;;15.25;13.70;;;19.30;64.20;;;;;;5127232;27;20042;-83
2021/06/03 05:50:26;;;;;;;14.85;13.35;;;19.40;64.30;;;;;;5100709;27;20152;-85
2021/06/03 05:52:52;;;;;;;14.07;12.68;;;19.40;64.20;;;;;;5095544;27;20043;-84
2021/06/03 05:55:19;;;;;;;14.95;13.50;;;19.40;64.00;;;;;;5092853;28;20039;-83
2021/06/03 05:57:45;;;;;;;14.68;13.30;;;19.50;64.10;;;;;;5105295;27;20081;-83
2021/06/03 06:00:22;;;;;;;16.25;14.55;;;19.50;64.00;;;;;;5100214;27;20033;-81
2021/06/03 06:08:03;;;;;;;15.27;13.77;;;19.60;64.20;;;;;;5124022;27;20042;-91
2021/06/03 06:10:30;;;;;;;19.35;15.27;;;19.60;64.20;;;;;;5105754;27;20053;-84
2021/06/03 06:12:55;;;;;;;19.02;16.88;;;19.70;64.50;;;;;;5101612;27;20047;-87
2021/06/03 06:15:21;;;;;;;16.17;13.73;;;19.70;65.00;;;;;;5107396;27;20040;-88
2021/06/03 06:17:47;;;;;;;16.98;14.18;;;19.80;64.90;;;;;;5096888;27;20061;-85
2021/06/03 06:20:15;;;;;;;16.88;15.38;;;19.80;64.80;;;;;;5116581;27;20053;-84
2021/06/03 06:22:43;;;;;;;15.77;14.25;;;19.80;65.10;;;;;;5083641;27;20039;-86
2021/06/03 06:25:09;;;;;;;16.50;14.90;;;19.90;65.00;;;;;;5099845;27;20061;-88
2021/06/03 06:27:37;;;;;;;16.08;14.57;;;19.90;64.80;;;;;;5082772;27;20099;-89
2021/06/03 06:30:08;;;;;;;15.68;14.07;;;19.90;65.00;;;;;;5101467;27;20041;-85
2021/06/03 06:32:34;;;;;;;16.02;14.45;;;20.00;65.20;;;;;;5115007;27;20043;-87
2021/06/03 06:35:00;;;;;;;16.27;14.65;;;20.00;65.00;;;;;;5126951;27;20446;-87
2021/06/03 06:37:26;;;;;;;14.25;12.95;;;20.10;65.10;;;;;;5111713;27;20038;-85
2021/06/03 06:39:51;;;;;;;14.65;13.10;;;20.10;65.00;;;;;;5114061;27;20447;-85
2021/06/03 06:42:17;;;;;;;15.52;13.93;;;20.10;64.90;;;;;;5096974;27;20035;-88
2021/06/03 06:44:43;;;;;;;14.70;13.23;;;20.20;65.00;;;;;;5102229;27;20046;-85
2021/06/03 06:47:09;;;;;;;14.27;12.25;;;20.20;64.80;;;;;;5110178;27;20058;-87
2021/06/03 06:49:36;;;;;;;14.32;12.88;;;20.30;64.80;;;;;;5123195;27;20535;-86
2021/06/03 06:52:02;;;;;;;13.88;12.57;;;20.40;64.90;;;;;;5133952;27;20038;-89
2021/06/03 06:54:27;;;;;;;14.35;12.10;;;20.40;64.70;;;;;;5095109;27;20091;-85
2021/06/03 06:56:53;;;;;;;13.75;12.45;;;20.40;64.70;;;;;;5101444;27;20039;-89
2021/06/03 06:59:28;;;;;;;14.50;13.20;;;20.50;64.90;;;;;;5096515;27;20043;-87
2021/06/03 07:01:54;;;;;;;14.77;13.27;;;20.50;64.90;;;;;;5073024;27;20075;-86
2021/06/03 07:04:20;;;;;;;15.25;13.75;;;20.50;65.00;;;;;;5114741;27;20067;-87
2021/06/03 07:06:46;;;;;;;15.63;14.05;;;20.60;64.90;;;;;;5115494;27;20548;-81
2021/06/03 07:09:12;;;;;;;16.10;14.27;;;20.60;64.60;;;;;;5098155;27;20035;-80
2021/06/03 07:11:38;;;;;;;14.32;12.93;;;20.60;64.70;;;;;;5081604;27;20047;-87
2021/06/03 07:14:04;;;;;;;16.35;14.80;;;20.70;64.60;;;;;;5082678;27;20471;-87
2021/06/03 07:16:30;;;;;;;15.95;14.35;;;20.70;64.60;;;;;;5116831;27;20039;-86
2021/06/03 07:18:56;;;;;;;14.57;13.07;;;20.70;64.60;;;;;;5099561;27;20050;-84
2021/06/03 07:21:24;;;;;;;16.33;14.70;;;20.70;64.60;;;;;;5099100;27;20111;-86
2021/06/03 07:23:50;;;;;;;16.05;14.63;;;20.80;64.60;;;;;;5082545;27;20505;-85
2021/06/03 07:26:17;;;;;;;18.55;13.95;;;20.90;64.60;;;;;;5089061;27;20067;-84
2021/06/03 07:28:47;;;;;;;15.27;13.77;;;20.90;64.50;;;;;;5099659;27;20146;-86
2021/06/03 07:31:12;;;;;;;15.65;14.05;;;20.90;64.40;;;;;;5098844;27;20070;-84
2021/06/03 07:33:38;;;;;;;14.55;13.15;;;21.00;64.60;;;;;;5136142;27;20046;-81
2021/06/03 07:36:04;;;;;;;13.90;12.50;;;21.10;64.50;;;;;;5102622;27;20058;-87
2021/06/03 07:38:30;;;;;;;15.73;14.07;;;21.10;64.20;;;;;;5118842;27;20430;-81
2021/06/03 07:40:56;;;;;;;15.07;13.57;;;21.20;64.20;;;;;;5102124;27;20041;-82
2021/06/03 07:43:21;;;;;;;16.88;14.25;;;21.30;64.20;;;;;;5136102;27;20149;-81
2021/06/03 07:45:47;;;;;;;17.50;15.70;;;21.30;64.10;;;;;;5118982;27;20344;-80
2021/06/03 07:48:16;;;;;;;15.95;14.35;;;21.40;64.10;;;;;;5118893;27;20038;-82
2021/06/03 07:50:51;;;;;;;16.33;14.63;;;21.40;63.90;;;;;;5086880;27;20051;-88
2021/06/03 07:53:19;;;;;;;17.77;16.08;;;21.50;64.10;;;;;;5104894;27;20288;-81
2021/06/03 07:55:45;;;;;;;16.63;14.93;;;21.50;64.10;;;;;;5118914;27;20140;-81
2021/06/03 07:58:12;;;;;;;16.23;14.63;;;21.60;64.00;;;;;;5119419;27;20462;-84
2021/06/03 08:00:42;;;;;;;17.80;15.40;;;21.60;63.80;;;;;;5118972;27;20111;-80
2021/06/03 08:03:08;;;;;;;16.45;14.88;;;21.70;64.00;;;;;;5102641;27;20062;-81
2021/06/03 08:05:34;;;;;;;17.38;15.48;;;21.70;63.90;;;;;;5117029;27;20058;-82
2021/06/03 08:08:00;;;;;;;18.00;16.10;;;21.80;63.80;;;;;;5091971;27;20035;-81
2021/06/03 08:10:29;;;;;;;16.55;14.95;;;21.80;63.80;;;;;;5110201;27;20475;-80
2021/06/03 08:12:56;;;;;;;16.95;15.20;;;21.80;63.80;;;;;;5096579;27;20068;-82
2021/06/03 08:15:22;;;;;;;17.88;15.02;;;21.90;63.60;;;;;;5113196;27;20039;-83
2021/06/03 08:17:48;;;;;;;17.15;15.40;;;21.90;63.40;;;;;;5107804;27;20050;-84
2021/06/03 08:20:35;;;;;;;16.20;14.57;;;21.90;63.60;;;;;;5110206;27;20026;-88
2021/06/03 08:23:01;;;;;;;16.92;15.23;;;22.00;63.60;;;;;;5101959;27;20043;-82
2021/06/03 08:25:26;;;;;;;16.05;14.43;;;22.00;63.60;;;;;;5118192;27;20447;-82
2021/06/03 08:27:52;;;;;;;15.98;14.30;;;22.00;63.60;;;;;;5119800;27;20053;-84
2021/06/03 08:30:19;;;;;;;14.80;13.40;;;22.10;63.40;;;;;;5119060;27;20051;-87
2021/06/03 08:32:46;;;;;;;16.83;15.10;;;22.20;63.40;;;;;;5136852;27;20057;-83
2021/06/03 08:35:15;;;;;;;14.77;13.25;;;22.20;63.50;;;;;;5103004;27;20054;-90
2021/06/03 08:38:04;;;;;;;17.15;13.07;;;22.30;63.40;;;;;;5103261;27;20045;-81
2021/06/03 08:40:58;;;;;;;14.50;11.23;;;22.40;63.00;;;;;;5080886;27;20564;-82
2021/06/03 08:43:30;;;;;;;13.30;11.55;;;22.50;63.00;;;;;;5080708;27;20420;-81
2021/06/03 08:45:57;;;;;;;13.80;12.40;;;22.60;63.00;;;;;;5118964;27;20043;-79
2021/06/03 08:48:23;;;;;;;12.73;11.45;;;22.70;62.90;;;;;;5102958;27;20035;-80
2021/06/03 08:50:55;;;;;;;13.25;11.88;;;22.70;62.80;;;;;;5111393;27;20038;-80
2021/06/03 08:53:21;;;;;;;12.80;11.50;;;22.80;62.50;;;;;;5127884;27;20449;-81
2021/06/03 08:58:39;;;;;;;11.90;10.85;;;23.00;62.30;;;;;;5126163;27;20035;-79
2021/06/03 09:01:05;;;;;;;11.82;10.73;;;23.10;62.30;;;;;;5132241;27;20125;-83
2021/06/03 09:03:31;;;;;;;11.55;10.38;;;23.20;62.20;;;;;;5117608;27;20541;-79
2021/06/03 09:05:57;;;;;;;12.07;10.32;;;23.20;62.10;;;;;;5135017;27;20065;-79
2021/06/03 09:08:32;;;;;;;12.27;11.05;;;23.30;61.80;;;;;;5117022;27;20043;-80
2021/06/03 09:11:02;;;;;;;10.75;9.75;;;23.30;61.40;;;;;;5115409;27;20034;-78
2021/06/03 09:13:35;;;;;;;11.13;10.10;;;23.40;62.20;;;;;;5124019;27;20086;-80
2021/06/03 09:16:10;;;;;;;15.73;10.27;;;23.50;61.20;;;;;;5112222;27;20114;-80
2021/06/03 09:18:50;;;;;;;11.70;10.52;;;23.60;61.30;;;;;;5123359;27;20162;-79
2021/06/03 09:21:24;;;;;;;12.50;11.23;;;23.70;61.10;;;;;;5116505;27;20047;-85
2021/06/03 09:24:07;;;;;;;11.30;10.20;;;23.70;60.60;;;;;;5131026;27;20035;-83
2021/06/03 09:26:34;;;;;;;11.20;10.07;;;23.80;60.60;;;;;;5117554;27;20073;-83
2021/06/03 09:29:05;;;;;;;11.40;10.18;;;23.90;60.20;;;;;;5069481;28;20482;-82
2021/06/03 09:31:34;;;;;;;12.10;10.85;;;24.00;59.90;;;;;;5080020;28;20504;-83
2021/06/03 09:34:11;;;;;;;12.80;10.40;;;24.00;59.70;;;;;;5096867;27;20050;-83
2021/06/03 09:36:44;;;;;;;10.05;8.85;;;24.10;59.70;;;;;;5114226;28;20111;-84
2021/06/03 09:39:14;;;;;;;11.07;9.70;;;24.20;59.70;;;;;;5081322;28;20398;-82
2021/06/03 09:41:49;;;;;;;9.85;8.57;;;24.30;59.60;;;;;;5096858;28;20046;-83
2021/06/03 09:44:25;;;;;;;11.98;9.90;;;24.40;59.30;;;;;;5097280;28;20097;-82
2021/06/03 09:47:00;;;;;;;9.48;8.52;;;24.50;59.30;;;;;;5097504;28;20043;-84
2021/06/03 09:49:34;;;;;;;11.65;10.45;;;24.70;59.50;;;;;;5081190;28;20384;-89
2021/06/03 09:52:05;;;;;;;11.10;9.85;;;24.70;59.40;;;;;;5098493;28;20039;-82
2021/06/03 09:54:31;;;;;;;11.95;10.50;;;24.90;59.30;;;;;;5113234;28;20039;-84
2021/06/03 09:57:10;;;;;;;15.15;13.55;;;25.00;59.40;;;;;;5097177;28;20420;-83
2021/06/03 09:59:41;;;;;;;13.20;11.60;;;25.10;58.80;;;;;;5097675;28;20043;-84
2021/06/03 10:02:17;;;;;;;13.60;12.20;;;25.30;58.80;;;;;;5114319;28;20054;-82
2021/06/03 10:04:45;;;;;;;13.02;11.68;;;25.40;59.10;;;;;;5079947;28;20103;-81
2021/06/03 10:07:12;;;;;;;14.13;12.63;;;25.60;58.80;;;;;;5096870;28;20062;-83
2021/06/03 10:09:50;;;;;;;13.10;11.75;;;25.70;58.20;;;;;;5079388;28;20043;-82
2021/06/03 10:12:25;;;;;;;13.50;12.20;;;25.80;57.60;;;;;;5113658;28;20115;-83
2021/06/03 10:15:11;;;;;;;12.75;11.45;;;26.00;57.20;;;;;;5113334;28;20087;-83
2021/06/03 10:17:46;;;;;;;11.82;10.65;;;26.10;56.90;;;;;;5103221;27;20039;-89
2021/06/03 10:20:16;;;;;;;11.77;10.57;;;26.20;56.20;;;;;;5118335;27;20494;-84
2021/06/03 10:22:47;;;;;;;11.70;10.50;;;26.20;54.70;;;;;;5098444;27;20073;-83
2021/06/03 10:25:23;;;;;;;10.25;9.25;;;26.30;54.20;;;;;;5097643;27;20046;-87
2021/06/03 10:27:57;;;;;;;13.63;10.18;;;26.40;53.70;;;;;;5109876;27;20027;-88
2021/06/03 10:30:30;;;;;;;13.50;11.20;;;26.50;53.10;;;;;;5119387;27;20043;-81
2021/06/03 10:32:59;;;;;;;12.80;10.13;;;26.50;52.20;;;;;;5111562;27;20063;-83
2021/06/03 10:35:30;;;;;;;10.63;9.60;;;26.60;52.30;;;;;;5100255;27;20039;-86
2021/06/03 10:37:57;;;;;;;9.98;9.02;;;26.70;52.00;;;;;;5098479;27;20047;-85
2021/06/03 10:40:29;;;;;;;10.95;9.57;;;26.70;51.90;;;;;;5105179;27;20476;-82
2021/06/03 10:42:56;;;;;;;11.80;8.65;;;26.80;51.40;;;;;;5081550;27;20043;-83
2021/06/03 10:45:22;;;;;;;10.23;8.82;;;26.90;51.10;;;;;;5110064;27;20406;-80
2021/06/03 10:47:48;;;;;;;10.88;9.48;;;27.00;50.80;;;;;;5095330;27;20097;-79
2021/06/03 10:50:17;;;;;;;11.00;9.93;;;27.10;50.70;;;;;;5105541;27;20053;-82
2021/06/03 10:52:44;;;;;;;12.73;10.43;;;27.20;51.40;;;;;;5099273;27;20116;-81
2021/06/03 10:55:10;;;;;;;11.98;9.85;;;27.30;51.50;;;;;;5113722;27;20138;-79
2021/06/03 10:57:48;;;;;;;12.18;10.73;;;27.50;51.50;;;;;;5069637;27;20108;-86
2021/06/03 11:00:29;;;;;;;11.40;9.48;;;27.60;51.60;;;;;;5122270;27;20484;-81
2021/06/03 11:03:16;;;;;;;11.95;10.23;;;27.70;51.50;;;;;;5098783;27;20027;-82
2021/06/03 11:05:46;;;;;;;12.43;10.65;;;27.80;51.00;;;;;;5084839;27;20123;-82
2021/06/03 11:08:24;;;;;;;11.05;9.95;;;27.90;51.20;;;;;;5100688;27;20375;-83
2021/06/03 11:10:50;;;;;;;15.68;10.95;;;27.90;50.90;;;;;;5141466;27;20065;-81
2021/06/03 11:13:18;;;;;;;10.32;9.27;;;27.90;50.50;;;;;;5095811;27;20055;-81
2021/06/03 11:16:21;;;;;;;10.63;8.20;;;27.90;50.20;;;;;;5099120;27;20049;-82
2021/06/03 11:18:48;;;;;;;;;;;28.20;49.70;;;;;;5098968;27;20051;-80
2021/06/03 11:21:32;;;;;;;9.18;8.27;;;28.30;49.40;;;;;;5133266;27;20059;-83
2021/06/03 11:24:16;;;;;;;10.63;9.60;;;28.50;49.00;;;;;;5154811;27;20039;-83
2021/06/03 11:26:46;;;;;;;10.15;9.15;;;28.70;48.00;;;;;;5136569;27;20118;-84
2021/06/03 11:29:22;;;;;;;9.85;8.88;;;28.80;47.90;;;;;;5135693;27;20030;-85
2021/06/03 11:32:08;;;;;;;11.43;9.75;;;29.00;47.70;;;;;;5129644;27;20071;-85
2021/06/03 11:34:43;;;;;;;13.52;8.98;;;29.10;47.40;;;;;;5104344;27;20058;-84
2021/06/03 11:37:18;;;;;;;11.55;10.40;;;29.30;47.50;;;;;;5134624;27;20051;-84
2021/06/03 11:39:55;;;;;;;11.02;10.00;;;29.50;46.60;;;;;;5099617;27;20551;-84
2021/06/03 11:42:58;;;;;;;11.55;10.27;;;29.70;46.70;;;;;;5092080;27;20059;-82
2021/06/03 11:45:24;;;;;;;11.17;9.57;;;29.90;46.60;;;;;;5079770;27;20050;-82
2021/06/03 11:47:55;;;;;;;12.20;10.75;;;30.10;46.00;;;;;;5147269;27;20039;-90
2021/06/03 11:50:59;;;;;;;11.30;9.90;;;30.30;45.60;;;;;;5116114;27;20437;-88
2021/06/03 11:53:30;;;;;;;9.65;8.65;;;30.70;45.60;;;;;;5103707;27;20074;-84
2021/06/03 11:55:58;;;;;;;11.73;10.57;;;31.10;45.30;;;;;;5118887;27;20099;-84
2021/06/03 11:58:38;;;;;;;10.60;9.60;;;31.40;44.90;;;;;;5058380;28;20475;-83
2021/06/03 12:01:15;;;;;;;10.35;9.45;;;31.70;44.80;;;;;;5057672;28;20052;-85
2021/06/03 12:03:42;;;;;;;10.77;9.77;;;31.70;44.00;;;;;;5059344;28;20052;-86
2021/06/03 12:06:15;;;;;;;11.90;10.90;;;31.70;43.80;;;;;;5057826;28;20504;-85
2021/06/03 12:08:57;;;;;;;11.55;10.48;;;31.60;43.40;;;;;;5076020;28;20048;-84
2021/06/03 12:11:27;;;;;;;10.88;9.77;;;31.70;43.20;;;;;;5042285;28;20094;-83
2021/06/03 12:17:47;;;;;;;14.15;12.65;;;31.60;43.60;;;;;;5086325;28;20079;-85
2021/06/03 12:20:15;;;;;;;11.40;10.38;;;31.30;43.90;;;;;;5042361;28;20070;-84
2021/06/03 12:22:41;;;;;;;12.05;10.95;;;31.20;43.80;;;;;;5058617;28;20083;-85
2021/06/03 12:25:07;;;;;;;14.32;11.00;;;31.00;43.90;;;;;;5041660;28;20052;-85
2021/06/03 12:27:42;;;;;;;12.40;11.40;;;30.80;44.00;;;;;;5041992;28;20071;-86
2021/06/03 12:30:23;;;;;;;11.73;10.63;;;30.60;44.10;;;;;;5107136;27;20066;-85
2021/06/03 12:33:11;;;;;;;12.63;11.52;;;30.40;44.60;;;;;;5119729;27;20031;-84
2021/06/03 12:35:45;;;;;;;13.43;12.05;;;30.20;45.20;;;;;;5119975;27;20035;-85
2021/06/03 12:38:27;;;;;;;13.93;12.63;;;30.00;45.70;;;;;;5101993;27;20051;-84
2021/06/03 12:40:53;;;;;;;13.82;12.45;;;29.80;46.10;;;;;;5120661;27;20045;-84
2021/06/03 12:43:19;;;;;;;14.65;13.32;;;29.60;46.50;;;;;;5103556;27;20058;-85
2021/06/03 12:45:47;;;;;;;14.88;13.50;;;29.40;46.90;;;;;;5119654;27;20034;-84
2021/06/03 12:48:16;;;;;;;15.90;14.40;;;29.30;47.50;;;;;;5119559;27;20050;-83
2021/06/03 12:50:44;;;;;;;14.70;13.40;;;29.20;48.40;;;;;;5085953;27;20047;-86